Fábio Alves

Olheiro-Chefe - Juventude
9 Dez 2027
Quinta-feira
Processo

Personalidade

Adaptabilidade (1) Ambição (3) Controvérsia (9) Lealdade (7) Pressão (1) Profissionalismo (13) Espírito Esportivo (19) Temperamento (1)

Perfil

Estilo de Treinamento Democrático
Licença Continental B
Determinação 4
Gestão de Pessoas 9
Motivação 9
Disciplina 4
Satisfação no Trabalho
100%
Fadiga
0%
Função Olheiro-Chefe
Salário 86.8K p/s
Contrato 14.03.2029

Desempenho

Comportamento Bom
Eficácia do Treinamento
34%
Desenvolvimento do Jogador
50%
Prevenção de Lesões
55%
Implementação Tática
25%

Eventos Recentes

Participou de uma reunião de recrutamento agora
Participou de uma reunião de recrutamento agora
Participou de uma reunião de recrutamento agora
Recomendou um alvo de transferência agora
Recomendou um alvo de transferência agora
Recomendou um alvo de transferência agora
Recomendou um alvo de transferência agora
Recomendou um alvo de transferência agora

Monitorando agora

223
Jogador Clube Status Habilidade Confiança Observado Última observação Último voto
Mao Hosoya Everton Negociando 134 / 135 67% 1 01.12.2027 Aprovar
Santiago Hezze Chaves Ativo 132 / 133 62% 1 01.12.2027 Aprovar
Igor Cariús Mirassol Ativo 123 / 119 55% 1 01.12.2027 -
John Kennedy Fluminense Ativo 142 / 132 40% 1 30.11.2027 -
Rafael Navarro St. Louis CITY SC Ativo 129 / 121 40% 6 29.11.2027 -
Lisandro Cabrera Maipú Ativo 121 / 115 40% 3 29.11.2027 -
Jonathan Cañete Portuguesa Ativo 102 / 110 40% 4 28.11.2027 -
Cheikh Sabaly Vancouver Whitecaps Ativo 136 / 130 40% 4 28.11.2027 -
Jorge Obregón Deportivo Pasto Ativo 103 / 109 40% 4 27.11.2027 -
Armindo Sieb Los Angeles Football Club Ativo 123 / 118 40% 4 27.11.2027 -
Matías Sosa Arsenal Ativo 122 / 117 40% 3 26.11.2027 -
Jefry Zapata Danubio Ativo 127 / 113 40% 2 26.11.2027 -
Tiago Freitas Benfica Ativo 123 / 131 40% 1 26.11.2027 -
Nicolas Sport Recife Ativo 101 / 111 40% 1 26.11.2027 -
Fredrik Ardraa Stromsgodset Ativo 102 / 105 40% 4 25.11.2027 -
Sebastian Olderheim Stabaek Ativo 119 / 117 40% 1 25.11.2027 -
Wessam Abou Ali Columbus Crew Ativo 142 / 133 40% 2 22.11.2027 -
Tomás Aranda Boca Juniors Ativo 107 / 122 40% 2 22.11.2027 -
Ruben Ramos LA Galaxy Ativo 99 / 117 40% 2 22.11.2027 -
Alexander Díaz Deportivo Riestra Ativo 133 / 116 40% 1 22.11.2027 -
João Abreu Porto Ativo 86 / 115 40% 2 20.11.2027 -
Mateus Mide Porto Ativo 96 / 116 40% 1 19.11.2027 -
Gonçalo Moreira Benfica Ativo 117 / 133 40% 1 19.11.2027 -
Mads Bomholt Stabaek Ativo 108 / 110 40% 1 18.11.2027 -
Olívio Tomé Benfica Ativo 113 / 114 40% 2 17.11.2027 -
Matheus Nascimento FC Dallas Ativo 136 / 128 40% 2 16.11.2027 -
Morgan Guilavogui Real Salt Lake Ativo 116 / 126 40% 1 16.11.2027 -
Juan Cruz de los Santos Nacional Ativo 127 / 121 40% 2 13.11.2027 -
Federico Martínez Liverpool Montevideo Ativo 121 / 110 40% 1 13.11.2027 -
Gianluca Pugliese Güemes Ativo 119 / 116 40% 3 12.11.2027 -
Alejo Cruz Juventud Ativo 134 / 120 40% 7 08.11.2027 -
Luca Martínez Dupuy Godoy Cruz Ativo 129 / 121 40% 1 08.11.2027 -
Luca Langoni Colorado Rapids Ativo 147 / 135 40% 4 06.11.2027 -
Duncan McGuire Houston Dynamo Ativo 137 / 125 40% 2 06.11.2027 -
Hassan Beja AFC Leopards Ativo 89 / 85 40% 3 06.11.2027 -
Franco Minerva Platense Ativo 107 / 124 40% 1 06.11.2027 -
Santiago Sala Güemes Ativo 121 / 113 40% 2 04.11.2027 -
Duarte Cunha Porto Ativo 106 / 100 40% 2 04.11.2027 -
Franco Tejera Oriental Ativo 88 / 84 40% 1 04.11.2027 -
Lucas Carrizo Plaza Colonia Ativo 124 / 116 40% 1 04.11.2027 -
Negueba Mirassol Ativo 138 / 119 40% 4 03.11.2027 -
Eric Ramírez Llaneros Ativo 118 / 112 40% 2 03.11.2027 -
Martín Ojeda Orlando City Ativo 129 / 130 40% 2 30.10.2027 -
André Miranda Porto Ativo 110 / 121 40% 1 29.10.2027 -
Kévin Denkey FC Cincinnati Ativo 114 / 133 40% 1 29.10.2027 -
Antony Alonso Deportivo Riestra Ativo 112 / 119 40% 1 29.10.2027 -
Tadeo Allende Inter Miami CF Ativo 129 / 126 40% 1 28.10.2027 -
Alex Amaefula Kun Khalifat Ativo 85 / 84 40% 3 26.10.2027 -
Tiziano Dornell Danubio Ativo 105 / 119 40% 2 26.10.2027 -
Louis Munteanu DC United Ativo 124 / 138 40% 1 26.10.2027 -
Wilfred Correa Caracas Ativo 90 / 102 40% 1 26.10.2027 -
Francisco Triver River Plate Ativo 84 / 98 40% 2 23.10.2027 -
Leonardo Campana New England Revolution Ativo 117 / 122 40% 6 23.10.2027 -
Dejan Joveljić Seattle Sounders Ativo 139 / 129 40% 3 19.10.2027 -
Jeong Sang-Bin St. Louis CITY SC Ativo 112 / 126 40% 1 19.10.2027 -
Gabriel Mec Porto Ativo 118 / 135 40% 2 18.10.2027 -
Alexis Cuello San Lorenzo Ativo 129 / 128 40% 3 18.10.2027 -
Luciano Cosentino Wanderers Ativo 120 / 126 40% 1 16.10.2027 -
Kevin Méndez Dinamo Tbilisi Ativo 124 / 106 40% 1 15.10.2027 -
Jesus Ferreira Seattle Sounders Ativo 136 / 133 40% 1 15.10.2027 -
Adriangel Torrealba Llaneros Ativo 85 / 86 40% 1 15.10.2027 -
Bahia Criciuma Ativo 111 / 126 40% 1 10.10.2027 -
Kauã Moraes Cruzeiro Ativo 135 / 126 40% 1 07.10.2027 -
Timo Werner San Jose Earthquakes Ativo 128 / 135 40% 2 04.10.2027 -
Mateo Peralta Danubio Ativo 117 / 117 40% 2 02.10.2027 -
Wisdom Udom Bendel Insurance Ativo 76 / 97 40% 1 02.10.2027 -
Emmanuel Sabbi Vancouver Whitecaps Ativo 134 / 123 40% 1 02.10.2027 -
Daniel Ferraresi Llaneros Ativo 87 / 85 40% 2 29.09.2027 -
Luciano Inverso Rentistas Ativo 117 / 114 40% 1 27.09.2027 -
Joel Ezra Enyimba Ativo 89 / 94 40% 2 25.09.2027 -
Agustín Gallo Tristán Suárez Ativo 115 / 114 40% 1 23.09.2027 -
Leandro Suhr Boston River Ativo 129 / 117 40% 1 22.09.2027 -
Bénie Traoré New York City Ativo 143 / 121 40% 1 22.09.2027 -
Figueiredo Sampaio Correa Ativo 97 / 96 40% 1 21.09.2027 -
Adalberto Peñaranda Deportivo Tachira Ativo 114 / 109 40% 2 18.09.2027 -
Diogo Guzmán Montevideo City Torque Ativo 123 / 117 40% 3 17.09.2027 -
Mustapha Umar Kano Pillars Ativo 85 / 89 40% 2 17.09.2027 -
Alexis Domínguez Chacarita Juniors Ativo 107 / 114 40% 1 17.09.2027 -
Juan Rodríguez Wanderers Ativo 87 / 110 40% 1 13.09.2027 -
Luis Vidal Deportivo Pereira Ativo 79 / 87 40% 1 13.09.2027 -
Enzo Cabrera Danubio Ativo 108 / 115 40% 1 11.09.2027 -
Mateo Silvetti Los Angeles Football Club Ativo 143 / 120 40% 3 09.09.2027 -
Sebastián Cocimano Nueva Chicago Ativo 119 / 115 40% 1 09.09.2027 -
Luis Otávio Colorado Rapids Ativo 125 / 113 40% 1 30.08.2027 -
Luke Baartman ES Mostaganem Ativo 120 / 120 40% 2 29.08.2027 -
Esteban de Lima Tacuarembo Ativo 93 / 100 40% 2 29.08.2027 -
Maren Kefas Plateau United Ativo 89 / 95 40% 2 28.08.2027 -
Daniel Awuni Aduana Stars Ativo 107 / 107 40% 1 27.08.2027 -
Manuel Kissanga Fortuna Mfou Ativo 89 / 98 40% 1 27.08.2027 -
Lucas Camejo River Plate Ativo 75 / 91 40% 2 24.08.2027 -
Rasco Abassah Bechem United Ativo 81 / 74 40% 2 24.08.2027 -
Ibrahim Sabiu Bendel Insurance Ativo 88 / 90 40% 2 23.08.2027 -
Chinedu Nwosu Bendel Insurance Ativo 73 / 89 40% 1 22.08.2027 -
Mamoutou Berthé US Bougouba Ativo 99 / 113 40% 1 19.08.2027 -
Ishmael Addo Heart of Lions Ativo 103 / 89 40% 1 18.08.2027 -
Davide Bartesaghi AC Milan Ativo 139 / 147 40% 2 17.08.2027 -
Rodrigo Mora AS Roma Ativo 126 / 144 40% 1 17.08.2027 -
Sascha Britschgi Padova Ativo 128 / 132 40% 3 12.08.2027 -
Mattia Rutigliano Pro Vercelli Ativo 90 / 104 40% 1 12.08.2027 -
Lucas Duré Montevideo City Torque Ativo 97 / 109 40% 1 11.08.2027 -
Leo Castledine Middlesbrough Ativo 122 / 131 40% 1 09.08.2027 -
Zane Albarus Cambridge United Ativo 101 / 103 40% 2 06.08.2027 -
Rayan Demirci Porto Ativo 103 / 97 40% 1 06.08.2027 -
Leandro Martins Benfica Ativo 101 / 109 40% 3 05.08.2027 -
Paulo Cardoso Sporting CP Ativo 92 / 109 40% 1 05.08.2027 -
Tomás Peixoto Porto Ativo 77 / 94 40% 1 04.08.2027 -
Francisco Fernandes Porto Ativo 101 / 108 40% 1 04.08.2027 -
Oscar Schwartau Norwich City Ativo 122 / 138 40% 1 03.08.2027 -
Finley McAllister Grimsby Town Ativo 93 / 100 40% 1 03.08.2027 -
Hwang Hee-Chan Wolverhampton Ativo 149 / 138 40% 1 28.06.2027 -
Joel McGregor Swindon Town Ativo 79 / 99 40% 4 16.06.2027 -
Keagan Tau Ajax Cape Town Ativo 81 / 108 40% 1 16.06.2027 -
Víctor Guzmán Sporting CP Ativo 83 / 98 40% 1 07.06.2027 -
Mathis Jangeal Famalicao Ativo 117 / 114 40% 1 07.06.2027 -
Yuri Alberto Köln Negociando 140 / 141 67% 1 01.06.2027 Aprovar
Dion Beljo Standard Liege Ativo 131 / 132 66% 1 01.06.2027 Aprovar
João Fonseca Benfica Ativo 117 / 109 40% 1 31.05.2027 -
Josh Smith Accrington Stanley Ativo 74 / 92 40% 2 30.05.2027 -
Christos Mouzakitis Hull City Ativo 131 / 143 40% 2 29.05.2027 -
Yussif Saidu Zaragoza Ativo 107 / 120 40% 2 29.05.2027 -
Gonçalo Oliveira Benfica Ativo 127 / 107 40% 3 28.05.2027 -
Rafael Quintas Benfica Ativo 97 / 94 40% 1 28.05.2027 -
Simone Kosijer Triestina Ativo 95 / 100 40% 1 27.05.2027 -
Daniel Costa Sporting CP Ativo 104 / 108 40% 1 27.05.2027 -
Daniel Vernattus Metalist Ativo 106 / 96 40% 2 26.05.2027 -
Pietro Reggiori Pro Patria Ativo 102 / 90 40% 1 26.05.2027 -
Adam Bakoune Ospitaletto Ativo 83 / 97 40% 3 25.05.2027 -
Darryl Bakola Padova Ativo 97 / 123 40% 1 25.05.2027 -
Martim Cunha Porto Ativo 110 / 108 40% 1 23.05.2027 -
Dylan Lawlor Cardiff City Ativo 123 / 116 40% 3 19.05.2027 -
Juan Giménez Celta Ativo 100 / 125 40% 2 17.05.2027 -
Caleb Yirenkyi Coventry City Ativo 150 / 135 40% 1 16.05.2027 -
Daniel Kelly Oxford United Ativo 114 / 121 40% 1 13.05.2027 -
Jofre Torrents Ajax Ativo 111 / 135 40% 2 10.05.2027 -
Josh King Chelsea Ativo 130 / 144 40% 1 09.05.2027 -
Ernie Weaver AFC Wimbledon Ativo 111 / 118 40% 2 04.05.2027 -
Kevin Pinto Benfica Ativo 100 / 105 40% 1 04.05.2027 -
Matías Gómez Granada Ativo 114 / 112 40% 1 30.04.2027 -
Kazunari Kita Real Sociedad Ativo 84 / 95 40% 1 28.04.2027 -
Toni Tamarit Alverca Ativo 129 / 130 40% 1 25.04.2027 -
Salvador Blopá Casa Pia Ativo 115 / 123 40% 1 22.04.2027 -
Martim Fernandes Porto Ativo 126 / 136 40% 3 21.04.2027 -
Cheveyo Tsawa Club Brugge Ativo 133 / 123 40% 1 16.04.2027 -
Rayhan Momade Sporting CP Ativo 99 / 90 40% 1 14.04.2027 -
Ibrahim Maza Bayer Leverkusen Ativo 137 / 153 40% 1 14.04.2027 -
João Capucho Benfica Ativo 89 / 106 40% 1 13.04.2027 -
Tomás Cruz Benfica Ativo 94 / 107 40% 1 15.12.2026 -
Amar Memić Casa Pia Ativo 127 / 128 62% 1 01.12.2026 Aprovar
Andreas Trimmel Red Bull Salzburg Ativo 131 / 131 60% 1 01.12.2026 Aprovar
Pau Víctor AVS Ativo 127 / 138 40% 2 29.11.2026 -
Ole Pohlmann Rio Ave Ativo 140 / 124 40% 3 29.11.2026 -
Everton Bala Levski Ativo 120 / 119 40% 1 29.11.2026 -
Manu Pozo Torreense Ativo 118 / 116 40% 2 27.11.2026 -
Arjan Malić Sturm Graz Ativo 112 / 115 40% 1 26.11.2026 -
Dinis Rodrigues Porto Ativo 104 / 100 40% 1 26.11.2026 -
Luis Mina Vizela Ativo 114 / 114 40% 1 25.11.2026 -
Ianis Stoica Estrela da Amadora Ativo 117 / 109 40% 2 22.11.2026 -
Alfonso Trezza Arouca Ativo 136 / 111 40% 1 22.11.2026 -
Yanis Begraoui Estoril Praia Ativo 137 / 125 40% 4 21.11.2026 -
Taichi Fukui Arouca Ativo 132 / 134 40% 2 21.11.2026 -
Martín Tejón Maritimo Ativo 98 / 112 40% 1 19.11.2026 -
Dawda Camara Alverca Ativo 130 / 119 40% 1 18.11.2026 -
Adnan Courtois KV Oostende Ativo 119 / 137 40% 1 18.11.2026 -
Víctor Gómez Braga Ativo 153 / 141 40% 2 15.11.2026 -
Lee Hyun-Ju Arouca Ativo 135 / 125 40% 1 15.11.2026 -
Figueiredo Alverca Ativo 120 / 126 40% 7 14.11.2026 -
Ricard Sánchez Estoril Praia Ativo 114 / 124 40% 2 14.11.2026 -
Lucas Duarte Felgueiras Ativo 104 / 112 40% 1 14.11.2026 -
Luis Quintero Torreense Ativo 122 / 128 40% 2 13.11.2026 -
Dylan Nandín Arouca Ativo 108 / 113 40% 2 12.11.2026 -
Manfred Ugalde Spartak Moscow Ativo 127 / 131 40% 1 12.11.2026 -
Agustín Módica Gimnasia y Esgrima Ativo 117 / 116 40% 1 11.11.2026 -
Roberto Fernández Braga Ativo 147 / 150 40% 2 09.11.2026 Mais informações
Ozziel Herrera Tigres Ativo 124 / 136 40% 1 09.11.2026 -
Zé Leite Leixões Ativo 110 / 116 40% 2 08.11.2026 -
Santi García Gil Vicente Ativo 140 / 140 40% 4 07.11.2026 -
João Mendes Vitoria Guimaraes Ativo 111 / 121 40% 1 07.11.2026 -
William Gomes Porto Ativo 149 / 153 40% 2 05.11.2026 -
André Lacximicant Estoril Praia Ativo 94 / 121 40% 1 05.11.2026 -
Henry Mosquera Bragantino Ativo 125 / 124 40% 2 02.11.2026 Mais informações
Lorougnon Gohi Académico de Viseu Ativo 119 / 110 40% 1 02.11.2026 Mais informações
Léo Teixeira Felgueiras Ativo 114 / 98 40% 1 01.11.2026 -
Bruno Ramos Sporting CP Ativo 115 / 120 40% 1 31.10.2026 -
Bryan Limbombe Maritimo Ativo 107 / 120 40% 1 29.10.2026 -
Marcos Peña Famalicao Ativo 101 / 125 40% 1 28.10.2026 -
Chiheb Labidi Nacional Ativo 132 / 109 40% 3 27.10.2026 -
José Neto Moreirense Ativo 113 / 111 40% 2 26.10.2026 -
Kevin Vazquez Cruz Azul Ativo 138 / 129 40% 1 26.10.2026 -
Álvaro Barreal Santos Ativo 142 / 126 40% 1 24.10.2026 -
Rafik Guitane Estoril Praia Ativo 127 / 131 40% 1 23.10.2026 -
Jalen Blesa Rio Ave Ativo 116 / 109 40% 3 22.10.2026 -
Nabil Touaizi Alverca Ativo 117 / 119 40% 1 21.10.2026 -
Eric Ramires Bragantino Ativo 140 / 131 40% 2 19.10.2026 Mais informações
Andrés Gómez Vasco da Gama Ativo 141 / 134 40% 2 19.10.2026 -
João Teixeira Porto Ativo 98 / 122 40% 1 19.10.2026 -
Razvan Balasa Crvena Zvezda Ativo 146 / 136 40% 1 16.10.2026 -
Naïs Djouahra Arouca Ativo 131 / 119 40% 1 13.10.2026 -
Nuno Moreira Vasco da Gama Ativo 142 / 138 40% 2 12.10.2026 -
Pedro Bondo Famalicao Ativo 109 / 131 40% 1 12.10.2026 -
Juanda Fuentes Penafiel Ativo 106 / 98 40% 1 12.10.2026 -
Valery Académico de Viseu Ativo 136 / 109 40% 2 10.10.2026 -
Vangelis Pavlidis Twente Ativo 159 / 159 40% 1 08.10.2026 -
Juan María Alcedo Torreense Ativo 128 / 104 40% 1 05.10.2026 -
Daniel Júnior Nacional Ativo 118 / 106 40% 1 04.10.2026 -
Matheuzinho Corinthians Ativo 138 / 120 40% 1 03.10.2026 -
Gabri Martínez Braga Ativo 127 / 129 40% 1 01.10.2026 -
MT Santa Clara Ativo 130 / 126 40% 2 27.09.2026 -
Tony Strata Vitoria Guimaraes Ativo 108 / 116 40% 1 26.09.2026 -
Luis Sinisterra Cruzeiro Ativo 137 / 132 40% 1 26.09.2026 -
Vinicinho Bragantino Ativo 131 / 129 40% 2 25.09.2026 -
Alan Lescano Argentinos Juniors Ativo 129 / 128 40% 2 23.09.2026 -
Jordan van der Gaag Leiria Ativo 125 / 115 40% 1 18.09.2026 -
Soma Anzai FC Tokyo Ativo 122 / 119 40% 1 17.09.2026 -
Caio Alexandre Bahia Ativo 146 / 134 40% 1 15.09.2026 -
Rémi Lemoine Chamois Niortais Ativo 157 / 147 40% 1 10.09.2026 -
Facundo Cáseres Gil Vicente Ativo 116 / 118 40% 1 09.09.2026 -
Victor Froholdt Porto Ativo 145 / 149 40% 1 08.09.2026 -
Óscar Rivas Vitoria Guimaraes Ativo 122 / 107 40% 1 05.08.2026 -
Sikou Niakaté Braga Ativo 143 / 147 40% 1 04.08.2026 -
Javi Sánchez Arouca Ativo 134 / 141 40% 1 04.08.2026 -
Tidjany Touré Gil Vicente Ativo 106 / 114 40% 1 02.08.2026 -
Weverson Gil Vicente Ativo 102 / 120 40% 1 01.08.2026 -
Makan Aïko Tondela Ativo 104 / 123 40% 1 01.08.2026 -